Flight Track Log - Related Links

Times and Time Zones

All times are in EDT time to prevent confusion due to time zone crossing. See the N82423 flight status page for this flight to view local times or setup timezone preferences in your user account.

Time Position Orientation Groundspeed Altitude Reporting Facility
EDT Latitude Longitude Course Direction KTS MPH feet Rate Location/Type
Fri 02:51:18 PM 40.0761 -83.0803 286° West 81 93 1,200  Level Indianapolis Center
Fri 02:51:49 PM 40.0792 -83.0944 286° West 81 93 1,700 796 Climbing Indianapolis Center
Fri 02:52:56 PM 40.0958 -83.1164 315° West 89 102 2,500 645 Climbing Indianapolis Center
Fri 02:53:50 PM 40.1133 -83.1303 329° Northwest 82 94 3,000 574 Climbing Indianapolis Center
Fri 02:54:51 PM 40.1303 -83.1522 315° West 83 96 3,600 492 Climbing Indianapolis Center
Fri 02:55:52 PM 40.1497 -83.1689 327° Northwest 87 100 4,000 443 Climbing Indianapolis Center
Fri 02:56:53 PM 40.1711 -83.1861 328° Northwest 89 102 4,500 496 Climbing Indianapolis Center
Fri 02:57:53 PM 40.1922 -83.2061 324° Northwest 93 107 5,000 496 Climbing Indianapolis Center
Fri 02:58:54 PM 40.2114 -83.2258 322° Northwest 90 104 5,500 443 Climbing Indianapolis Center
Fri 02:59:55 PM 40.2303 -83.2481 318° Northwest 90 104 5,900 330 Climbing Indianapolis Center
Fri 03:00:25 PM 40.2400 -83.2558 329° Northwest 91 105 6,000 98 Climbing Indianapolis Center
Fri 03:00:56 PM 40.2533 -83.2711 319° Northwest 111 128 6,000  Level Indianapolis Center
Fri 03:01:27 PM 40.2669 -83.2756 346° North 110 127 6,000 -129 Level Indianapolis Center
Fri 03:02:29 PM 40.3008 -83.2833 350° North 122 140 5,800 -97 Descending Indianapolis Center
Fri 03:03:31 PM 40.3328 -83.3119 326° Northwest 118 136 5,800 48 Level Indianapolis Center
Fri 03:04:33 PM 40.3575 -83.3381 321° Northwest 114 131 5,900 48 Climbing Indianapolis Center
Fri 03:05:35 PM 40.3819 -83.3625 323° Northwest 111 128 5,900 48 Level Indianapolis Center
Fri 03:06:37 PM 40.4075 -83.3892 322° Northwest 114 131 6,000 97 Climbing Indianapolis Center
Fri 03:07:39 PM 40.4328 -83.4150 322° Northwest 115 132 6,100  Climbing Indianapolis Center
Fri 03:08:41 PM 40.4578 -83.4392 324° Northwest 113 130 6,000 -49 Descending Indianapolis Center
Fri 03:09:42 PM 40.4819 -83.4669 319° Northwest 114 131 6,000  Level Indianapolis Center
Fri 03:10:44 PM 40.5125 -83.4947 325° Northwest 114 131 6,000  Level Indianapolis Center
Fri 03:11:46 PM 40.5389 -83.5181 326° Northwest 113 130 6,000  Level Indianapolis Center
Fri 03:12:48 PM 40.5653 -83.5425 325° Northwest 115 132 6,000  Level Indianapolis Center
Fri 03:13:50 PM 40.5922 -83.5639 329° Northwest 113 130 6,000  Level Indianapolis Center
Fri 03:14:52 PM 40.6211 -83.5836 333° Northwest 115 132 6,000  Level Indianapolis Center
Fri 03:15:54 PM 40.6486 -83.6061 328° Northwest 115 132 6,000  Level Indianapolis Center
Fri 03:16:56 PM 40.6772 -83.6275 330° Northwest 116 133 6,000  Level Indianapolis Center
Fri 03:17:58 PM 40.7047 -83.6503 328° Northwest 116 133 6,000  Level Indianapolis Center
Fri 03:19:00 PM 40.7356 -83.6789 325° Northwest 116 133 6,000 48 Level Indianapolis Center
Fri 03:20:02 PM 40.7631 -83.7031 326° Northwest 116 133 6,100 48 Climbing Indianapolis Center
Fri 03:21:04 PM 40.7875 -83.7292 321° Northwest 114 131 6,100  Level Indianapolis Center
Fri 03:22:06 PM 40.8142 -83.7569 322° Northwest 119 137 6,100  Level Indianapolis Center
Fri 03:23:08 PM 40.8397 -83.7833 322° Northwest 116 133 6,100 -48 Level Indianapolis Center
Fri 03:24:10 PM 40.8658 -83.8108 321° Northwest 118 136 6,000 -48 Descending Indianapolis Center
Fri 03:25:12 PM 40.8928 -83.8367 324° Northwest 119 137 6,000  Level Indianapolis Center
Fri 03:26:14 PM 40.9247 -83.8650 326° Northwest 117 135 6,000  Level Indianapolis Center
Fri 03:27:16 PM 40.9528 -83.8872 329° Northwest 117 135 6,000  Level Indianapolis Center
Fri 03:28:18 PM 40.9814 -83.9119 327° Northwest 121 139 6,000  Level Indianapolis Center
Fri 03:29:20 PM 41.0103 -83.9372 327° Northwest 122 140 6,000 -196 Level Indianapolis Center
Fri 03:31:22 PM 41.0653 -83.9881 325° Northwest 123 142 5,400 -359 Descending Chicago Center
Fri 03:32:24 PM 41.0953 -84.0231 319° Northwest 122 140 4,900 -387 Descending Chicago Center
Fri 03:33:26 PM 41.1206 -84.0547 317° Northwest 123 142 4,600 -387 Descending Chicago Center
Fri 03:34:28 PM 41.1442 -84.0850 316° Northwest 122 140 4,100 -290 Descending Chicago Center
Fri 03:35:30 PM 41.1656 -84.1117 317° Northwest 121 139 4,000 -17 Descending Chicago Center
Fri 03:37:00 PM 41.2026 -84.1494 323° Northwest  Level FlightAware Approximate
Fri 03:40:16 PM 41.2931 -84.2458 324° Northwest 79 91 4,000  Level Chicago Center
Fri 03:41:18 PM 41.3222 -84.2678 331° Northwest 115 132 4,000  Level Chicago Center
Fri 03:42:20 PM 41.3522 -84.2900 331° Northwest 118 136 4,000  Level Chicago Center
Fri 03:43:22 PM 41.3597 -84.3311 284° West 116 133 4,000  Level Chicago Center
Fri 03:44:00 PM 41.3758 -84.3254 324° Northwest  Level FlightAware Approximate
Fri 03:44:24 PM 41.3567 -84.3856 266° West 120 138 4,000  Level Chicago Center
Fri 03:45:00 PM 41.4011 -84.3496 324° Northwest  Level FlightAware Approximate
Fri 03:45:26 PM 41.3603 -84.4306 276° West 122 140 4,000  Level Chicago Center
Fri 03:46:28 PM 41.3733 -84.4692 294° West 119 137 4,000  Level Chicago Center
Fri 03:47:30 PM 41.3908 -84.5047 303° West 115 132 4,000  Level Chicago Center
Fri 03:48:32 PM 41.4092 -84.5397 305° West 115 132 4,000  Level Chicago Center
Fri 03:49:34 PM 41.4267 -84.5731 305° West 113 130 4,000  Level Chicago Center
Fri 03:50:35 PM 41.4497 -84.6150 306° West 114 131 4,000  Level Chicago Center
Fri 03:51:37 PM 41.4703 -84.6508 307° West 118 136 4,000  Level Chicago Center
Fri 03:52:39 PM 41.4917 -84.6817 313° West 116 133 4,000  Level Chicago Center
Fri 03:53:41 PM 41.5147 -84.7117 316° Northwest 116 133 4,000  Level Chicago Center
Fri 03:54:43 PM 41.5439 -84.7344 330° Northwest 117 135 4,000  Level Chicago Center
Fri 03:55:45 PM 41.5736 -84.7556 332° Northwest 118 136 4,000  Level Chicago Center
Fri 03:56:47 PM 41.6092 -84.7806 332° Northwest 120 138 4,000  Level Chicago Center
Fri 03:57:49 PM 41.6358 -84.8053 325° Northwest 119 137 4,000  Level Chicago Center
Fri 03:58:51 PM 41.6581 -84.8350 315° West 116 133 4,000  Level Chicago Center
Fri 03:59:54 PM 41.6853 -84.8583 327° Northwest 115 132 4,000  Level Chicago Center
Fri 04:00:55 PM 41.7139 -84.8800 331° Northwest 116 133 4,000  Level Chicago Center
Fri 04:01:57 PM 41.7422 -84.9047 327° Northwest 119 137 4,000 -48 Level Chicago Center
Fri 04:02:59 PM 41.7775 -84.9319 330° Northwest 121 139 3,900  Descending Chicago Center
Fri 04:04:01 PM 41.8058 -84.9536 330° Northwest 120 138 4,000 48 Climbing Chicago Center
Fri 04:05:03 PM 41.8333 -84.9767 328° Northwest 119 137 4,000  Level Chicago Center
Fri 04:06:05 PM 41.8600 -84.9986 328° Northwest 116 133 4,000  Level Chicago Center
Fri 04:07:07 PM 41.8864 -85.0211 328° Northwest 114 131 4,000  Level Chicago Center
Fri 04:08:09 PM 41.9211 -85.0433 335° Northwest 114 131 4,000  Level Chicago Center
Fri 04:09:11 PM 41.9503 -85.0617 335° Northwest 115 132 4,000  Level Chicago Center
Fri 04:10:13 PM 41.9819 -85.0767 341° North 117 135 4,000  Level Chicago Center
Fri 04:11:14 PM 42.0125 -85.0908 341° North 118 136 4,000  Level Chicago Center
Fri 04:12:16 PM 42.0450 -85.1042 343° North 120 138 4,000  Level Chicago Center
Fri 04:13:18 PM 42.0764 -85.1169 343° North 120 138 4,000  Level Chicago Center
Fri 04:14:20 PM 42.1083 -85.1308 342° North 121 139 4,000  Level Chicago Center
Fri 04:15:22 PM 42.1464 -85.1483 341° North 122 140 4,000 -145 Level Chicago Center
Fri 04:16:24 PM 42.1781 -85.1611 343° North 121 139 3,700 -439 Descending Chicago Center
Fri 04:17:25 PM 42.2136 -85.1711 348° North 125 144 3,100 -488 Descending Chicago Center
Fri 04:18:27 PM 42.2464 -85.1789 350° North 125 144 2,700 -387 Descending Chicago Center
Fri 04:19:29 PM 42.2789 -85.1894 346° North 122 140 2,300 -484 Descending Chicago Center
Fri 04:20:31 PM 42.3047 -85.2128 326° Northwest 116 133 1,700 -435 Descending Chicago Center
Fri 04:21:33 PM 42.3275 -85.2389 320° Northwest 109 125 1,400 -290 Descending Chicago Center
Fri 04:23:00 PM 42.3000 -85.2500 324° Northwest  Level FlightAware Approximate

Login

Don't have an account? Register now (free) for customized features, flight alerts, and more!